Time;durP1;ratioP1;P1;durP2;ratioP2;P2;SDS_P1;SDS_P2;PMS_P1;PMS_P2;Temp;Humidity;BMP_temperature;BMP_pressure;BME280_temperature;BME280_humidity;BME280_pressure;Samples;Min_cycle;Max_cycle;Signal;HPM_P1;HPM_P2
2022/02/20 00:00:37;;;;;;;19.67;2.10;;;;;;;;;;5010101;28;20288;-72
2022/02/20 00:03:03;;;;;;;14.05;2.72;;;;;;;;;;5011586;28;20021;-72
2022/02/20 00:05:28;;;;;;;19.48;3.25;;;;;;;;;;5011266;28;20465;-73
2022/02/20 00:07:53;;;;;;;23.58;4.43;;;;;;;;;;5011698;28;20018;-72
2022/02/20 00:10:18;;;;;;;7.07;2.05;;;;;;;;;;5010896;28;20045;-74
2022/02/20 00:12:44;;;;;;;14.77;3.05;;;;;;;;;;5011382;28;20026;-73
2022/02/20 00:15:09;;;;;;;13.32;3.22;;;;;;;;;;5011026;28;20470;-72
2022/02/20 00:17:35;;;;;;;14.38;2.83;;;;;;;;;;5006947;28;20041;-72
2022/02/20 00:20:00;;;;;;;13.45;3.17;;;;;;;;;;5009177;28;20053;-71
2022/02/20 00:22:25;;;;;;;16.30;4.38;;;;;;;;;;5010541;28;20025;-71
2022/02/20 00:24:50;;;;;;;14.80;3.42;;;;;;;;;;5011387;28;20029;-71
2022/02/20 00:27:15;;;;;;;16.35;2.70;;;;;;;;;;5011338;28;20109;-71
2022/02/20 00:29:41;;;;;;;16.27;5.00;;;;;;;;;;5010227;28;20517;-71
2022/02/20 00:32:06;;;;;;;16.05;2.78;;;;;;;;;;5009344;28;20478;-71
2022/02/20 00:34:31;;;;;;;10.02;2.75;;;;;;;;;;5011494;28;20470;-71
2022/02/20 00:36:57;;;;;;;20.65;5.15;;;;;;;;;;5010209;28;20022;-71
2022/02/20 00:39:22;;;;;;;13.45;3.17;;;;;;;;;;5010587;28;20021;-71
2022/02/20 00:41:47;;;;;;;22.77;3.93;;;;;;;;;;5011165;28;20116;-71
2022/02/20 00:44:12;;;;;;;10.70;2.38;;;;;;;;;;5010693;28;20659;-71
2022/02/20 00:46:37;;;;;;;21.87;2.93;;;;;;;;;;5010474;28;20382;-71
2022/02/20 00:49:02;;;;;;;13.32;4.00;;;;;;;;;;5011126;28;20606;-72
2022/02/20 00:51:28;;;;;;;21.45;2.88;;;;;;;;;;5009364;28;20121;-72
2022/02/20 00:53:53;;;;;;;7.20;1.70;;;;;;;;;;5010540;28;20050;-71
2022/02/20 00:56:18;;;;;;;15.00;2.30;;;;;;;;;;5010485;28;20022;-72
2022/02/20 00:58:43;;;;;;;13.07;3.50;;;;;;;;;;4993374;28;20021;-71
2022/02/20 01:01:09;;;;;;;13.77;1.80;;;;;;;;;;5011650;28;20276;-72
2022/02/20 01:03:34;;;;;;;15.98;2.30;;;;;;;;;;5009103;28;20386;-72
2022/02/20 01:05:59;;;;;;;11.90;2.13;;;;;;;;;;5007709;28;20079;-71
2022/02/20 01:08:25;;;;;;;17.27;2.40;;;;;;;;;;5004623;28;20025;-72
2022/02/20 01:10:50;;;;;;;15.18;2.35;;;;;;;;;;5010009;28;20276;-71
2022/02/20 01:13:15;;;;;;;7.65;1.80;;;;;;;;;;5010419;28;20018;-72
2022/02/20 01:15:40;;;;;;;14.05;2.30;;;;;;;;;;5010074;28;20037;-72
2022/02/20 01:18:06;;;;;;;12.10;2.47;;;;;;;;;;5010178;28;20014;-72
2022/02/20 01:20:31;;;;;;;9.85;1.90;;;;;;;;;;5009817;28;20022;-70
2022/02/20 01:22:56;;;;;;;17.42;2.70;;;;;;;;;;5009843;28;20014;-71
2022/02/20 01:25:21;;;;;;;9.93;2.97;;;;;;;;;;5009472;28;20093;-69
2022/02/20 01:27:47;;;;;;;7.82;1.92;;;;;;;;;;4998434;28;20133;-71
2022/02/20 01:30:12;;;;;;;14.67;2.63;;;;;;;;;;5009961;28;20062;-70
2022/02/20 01:32:37;;;;;;;17.63;2.40;;;;;;;;;;5010581;28;20260;-71
2022/02/20 01:35:02;;;;;;;8.38;1.67;;;;;;;;;;5009133;28;20044;-73
2022/02/20 01:37:27;;;;;;;9.05;2.03;;;;;;;;;;5010227;28;20022;-72
2022/02/20 01:39:53;;;;;;;11.13;1.92;;;;;;;;;;5009083;28;20204;-73
2022/02/20 01:42:18;;;;;;;17.50;3.42;;;;;;;;;;5010355;28;20013;-71
2022/02/20 01:44:43;;;;;;;8.27;2.47;;;;;;;;;;5010504;28;20037;-71
2022/02/20 01:47:09;;;;;;;8.18;1.98;;;;;;;;;;5009912;28;20327;-72
2022/02/20 01:49:35;;;;;;;10.77;2.42;;;;;;;;;;5010066;28;20026;-71
2022/02/20 01:52:00;;;;;;;12.60;4.22;;;;;;;;;;5009472;28;20058;-74
2022/02/20 01:54:25;;;;;;;17.70;2.40;;;;;;;;;;5010326;28;20106;-73
2022/02/20 01:56:52;;;;;;;10.65;3.30;;;;;;;;;;5009433;28;20024;-70
2022/02/20 01:59:18;;;;;;;14.70;3.22;;;;;;;;;;5009968;28;20120;-71
2022/02/20 02:01:43;;;;;;;8.50;3.50;;;;;;;;;;5009722;28;20026;-71
2022/02/20 02:04:08;;;;;;;11.75;3.00;;;;;;;;;;5008927;28;20033;-71
2022/02/20 02:06:34;;;;;;;21.50;4.00;;;;;;;;;;5008641;28;20040;-71
2022/02/20 02:08:59;;;;;;;13.85;4.03;;;;;;;;;;5009567;28;20363;-70
2022/02/20 02:11:24;;;;;;;14.20;3.60;;;;;;;;;;5009842;28;20030;-69
2022/02/20 02:13:50;;;;;;;14.13;3.90;;;;;;;;;;5008978;28;20026;-71
2022/02/20 02:16:15;;;;;;;12.25;4.65;;;;;;;;;;5009171;28;20018;-72
2022/02/20 02:18:40;;;;;;;18.90;4.55;;;;;;;;;;5009441;28;20029;-71
2022/02/20 02:21:05;;;;;;;7.35;4.32;;;;;;;;;;5009839;28;20022;-71
2022/02/20 02:23:32;;;;;;;12.88;4.72;;;;;;;;;;5012647;28;20045;-71
2022/02/20 02:25:57;;;;;;;14.98;5.53;;;;;;;;;;5012514;28;20093;-72
2022/02/20 02:28:22;;;;;;;18.17;5.10;;;;;;;;;;5013007;28;20117;-71
2022/02/20 02:30:48;;;;;;;12.13;3.95;;;;;;;;;;5011903;28;20065;-72
2022/02/20 02:33:24;;;;;;;9.02;4.88;;;;;;;;;;5012990;28;20018;-71
2022/02/20 02:35:49;;;;;;;19.73;5.30;;;;;;;;;;5013038;28;20034;-71
2022/02/20 02:38:14;;;;;;;12.77;5.00;;;;;;;;;;5012749;28;20084;-71
2022/02/20 02:40:39;;;;;;;21.73;5.53;;;;;;;;;;5011269;28;20312;-71
2022/02/20 02:43:04;;;;;;;16.50;5.83;;;;;;;;;;5012966;28;20268;-71
2022/02/20 02:45:30;;;;;;;19.17;5.57;;;;;;;;;;5012400;28;20808;-71
2022/02/20 02:47:55;;;;;;;12.43;5.27;;;;;;;;;;5012602;28;20245;-71
2022/02/20 02:50:20;;;;;;;17.40;6.28;;;;;;;;;;5012737;28;20696;-71
2022/02/20 02:52:46;;;;;;;14.30;5.80;;;;;;;;;;5012821;28;20026;-71
2022/02/20 02:55:11;;;;;;;15.82;6.03;;;;;;;;;;5011393;28;20037;-71
2022/02/20 02:57:36;;;;;;;13.27;5.13;;;;;;;;;;4998957;28;20030;-71
2022/02/20 03:00:02;;;;;;;14.50;5.38;;;;;;;;;;5008531;28;20026;-71
2022/02/20 03:02:27;;;;;;;15.52;5.75;;;;;;;;;;5011521;28;20057;-71
2022/02/20 03:04:52;;;;;;;15.37;5.67;;;;;;;;;;5012466;28;20021;-71
2022/02/20 03:07:17;;;;;;;13.10;5.33;;;;;;;;;;4994551;28;20809;-71
2022/02/20 03:09:43;;;;;;;17.88;6.95;;;;;;;;;;5011575;28;20265;-71
2022/02/20 03:12:08;;;;;;;15.80;6.70;;;;;;;;;;5011704;28;20025;-71
2022/02/20 03:14:34;;;;;;;17.15;6.03;;;;;;;;;;5011739;28;20033;-71
2022/02/20 03:16:59;;;;;;;21.83;6.05;;;;;;;;;;5012223;28;20500;-72
2022/02/20 03:19:24;;;;;;;24.90;5.57;;;;;;;;;;5012026;28;20107;-71
2022/02/20 03:21:49;;;;;;;15.80;4.53;;;;;;;;;;5012228;28;20030;-71
2022/02/20 03:24:15;;;;;;;15.95;5.22;;;;;;;;;;5011822;28;20279;-71
2022/02/20 03:26:40;;;;;;;14.30;5.03;;;;;;;;;;5011111;28;20550;-71
2022/02/20 03:29:05;;;;;;;15.20;4.97;;;;;;;;;;5012331;28;20530;-71
2022/02/20 03:31:30;;;;;;;6.90;3.90;;;;;;;;;;5011966;28;20279;-71
2022/02/20 03:33:55;;;;;;;17.05;4.57;;;;;;;;;;5011889;28;20029;-71
2022/02/20 03:36:21;;;;;;;9.43;3.67;;;;;;;;;;5011559;28;20029;-71
2022/02/20 03:38:46;;;;;;;13.48;4.25;;;;;;;;;;5012162;28;20899;-71
2022/02/20 03:41:11;;;;;;;14.25;4.68;;;;;;;;;;5011516;28;20026;-71
2022/02/20 03:43:36;;;;;;;13.05;5.15;;;;;;;;;;5011745;28;20040;-71
2022/02/20 03:46:02;;;;;;;10.27;4.43;;;;;;;;;;5011167;28;20032;-71
2022/02/20 03:48:27;;;;;;;14.23;5.60;;;;;;;;;;5011750;28;20053;-71
2022/02/20 03:50:52;;;;;;;14.55;6.95;;;;;;;;;;5011474;28;20034;-71
2022/02/20 03:53:17;;;;;;;14.20;5.13;;;;;;;;;;5011293;28;20397;-71
2022/02/20 03:55:43;;;;;;;13.80;6.07;;;;;;;;;;5011305;28;20034;-71
2022/02/20 03:58:08;;;;;;;13.75;4.85;;;;;;;;;;5009411;28;20490;-71
2022/02/20 04:00:33;;;;;;;16.93;7.13;;;;;;;;;;5009064;28;20030;-71
2022/02/20 04:02:58;;;;;;;19.73;6.20;;;;;;;;;;5011254;28;20352;-71
2022/02/20 04:05:24;;;;;;;14.48;5.22;;;;;;;;;;5009867;28;20026;-70
2022/02/20 04:07:49;;;;;;;19.53;5.90;;;;;;;;;;5011158;28;20023;-72
2022/02/20 04:10:14;;;;;;;15.80;5.35;;;;;;;;;;5018998;23;20316;-72
2022/02/20 04:12:40;;;;;;;17.75;6.65;;;;;;;;;;5009359;28;20025;-72
2022/02/20 04:15:10;;;;;;;17.05;5.28;;;;;;;;;;5033414;28;20048;-72
2022/02/20 04:17:35;;;;;;;;;;;;;;;;;;5014406;28;20092;-72
2022/02/20 04:20:00;;;;;;;8.98;4.22;;;;;;;;;;5015995;28;19964;-72
2022/02/20 04:22:26;;;;;;;13.13;4.40;;;;;;;;;;5017908;28;20063;-72
2022/02/20 04:24:51;;;;;;;11.17;4.83;;;;;;;;;;5022933;28;20265;-72
2022/02/20 04:27:16;;;;;;;14.37;7.07;;;;;;;;;;5024568;28;20300;-72
2022/02/20 04:29:41;;;;;;;5.77;3.47;;;;;;;;;;5011811;28;20277;-72
2022/02/20 04:32:07;;;;;;;15.63;5.55;;;;;;;;;;5018344;28;20337;-73
2022/02/20 04:34:32;;;;;;;21.52;5.95;;;;;;;;;;5015984;28;20119;-72
2022/02/20 04:36:57;;;;;;;11.13;5.22;;;;;;;;;;5018964;28;20444;-72
2022/02/20 04:39:22;;;;;;;17.52;4.72;;;;;;;;;;5015305;28;20025;-72
2022/02/20 04:41:48;;;;;;;23.13;6.10;;;;;;;;;;5013901;28;20025;-72
2022/02/20 04:44:13;;;;;;;19.25;5.68;;;;;;;;;;5012681;28;20029;-73
2022/02/20 04:46:38;;;;;;;16.48;5.15;;;;;;;;;;5016507;28;20014;-72
2022/02/20 04:49:04;;;;;;;12.57;4.60;;;;;;;;;;5016510;28;20030;-72
2022/02/20 04:51:30;;;;;;;18.98;5.82;;;;;;;;;;5010975;28;20010;-72
2022/02/20 04:53:56;;;;;;;13.40;6.07;;;;;;;;;;5011138;28;20064;-72
2022/02/20 04:56:21;;;;;;;19.38;6.93;;;;;;;;;;5018481;28;20030;-71
2022/02/20 04:58:46;;;;;;;20.73;7.00;;;;;;;;;;5012815;28;20026;-73
2022/02/20 05:01:11;;;;;;;15.90;7.55;;;;;;;;;;5026974;28;20468;-71
2022/02/20 05:03:36;;;;;;;19.45;7.25;;;;;;;;;;5015252;28;20250;-72
2022/02/20 05:06:02;;;;;;;13.57;6.90;;;;;;;;;;5012974;28;20386;-71
2022/02/20 05:08:27;;;;;;;15.38;6.38;;;;;;;;;;5012023;28;20025;-72
2022/02/20 05:10:52;;;;;;;22.90;6.77;;;;;;;;;;5012031;28;20025;-72
2022/02/20 05:13:17;;;;;;;18.40;6.60;;;;;;;;;;5026198;28;20360;-72
2022/02/20 05:15:43;;;;;;;16.65;6.00;;;;;;;;;;5011377;28;20273;-71
2022/02/20 05:18:08;;;;;;;19.58;7.07;;;;;;;;;;5011356;28;20030;-72
2022/02/20 05:20:33;;;;;;;12.63;5.85;;;;;;;;;;5016435;28;20047;-72
2022/02/20 05:22:58;;;;;;;11.50;6.07;;;;;;;;;;5013761;28;20022;-71
2022/02/20 05:25:23;;;;;;;11.70;5.43;;;;;;;;;;5010646;28;20493;-72
2022/02/20 05:27:49;;;;;;;17.13;6.15;;;;;;;;;;5016207;28;20467;-72
2022/02/20 05:30:16;;;;;;;16.48;6.20;;;;;;;;;;5011648;28;20117;-70
2022/02/20 05:32:42;;;;;;;19.23;6.07;;;;;;;;;;5026245;28;20020;-73
2022/02/20 05:35:07;;;;;;;16.50;5.05;;;;;;;;;;5010274;28;20021;-72
2022/02/20 05:37:42;;;;;;;16.92;5.80;;;;;;;;;;5010566;28;20430;-71
2022/02/20 05:40:08;;;;;;;14.10;5.75;;;;;;;;;;5023456;28;20034;-72
2022/02/20 05:42:33;;;;;;;18.13;4.85;;;;;;;;;;5016934;28;20133;-72
2022/02/20 05:44:59;;;;;;;16.52;5.90;;;;;;;;;;5010233;28;20022;-71
2022/02/20 05:47:24;;;;;;;9.65;4.63;;;;;;;;;;5016588;28;20287;-72
2022/02/20 05:49:49;;;;;;;7.80;2.92;;;;;;;;;;5010636;28;20021;-71
2022/02/20 05:52:14;;;;;;;12.33;5.43;;;;;;;;;;5009918;28;20641;-71
2022/02/20 05:54:39;;;;;;;20.88;6.03;;;;;;;;;;5021525;28;20264;-71
2022/02/20 05:57:04;;;;;;;6.32;3.33;;;;;;;;;;5013384;28;20021;-71
2022/02/20 05:59:30;;;;;;;12.05;2.60;;;;;;;;;;5023158;28;20110;-71
2022/02/20 06:01:55;;;;;;;27.70;6.55;;;;;;;;;;5014026;28;20026;-71
2022/02/20 06:04:20;;;;;;;9.05;3.28;;;;;;;;;;5027114;28;20473;-71
2022/02/20 06:06:46;;;;;;;17.50;4.43;;;;;;;;;;5026192;28;20021;-71
2022/02/20 06:09:11;;;;;;;16.70;5.00;;;;;;;;;;5020749;28;20268;-71
2022/02/20 06:11:37;;;;;;;5.90;2.73;;;;;;;;;;5021749;28;20063;-71
2022/02/20 06:14:02;;;;;;;12.73;3.70;;;;;;;;;;5021625;28;20744;-71
2022/02/20 06:16:27;;;;;;;11.30;2.67;;;;;;;;;;5007794;28;20084;-71
2022/02/20 06:18:52;;;;;;;19.42;3.53;;;;;;;;;;5015057;28;20103;-71
2022/02/20 06:21:17;;;;;;;10.73;3.85;;;;;;;;;;5018498;28;20025;-71
2022/02/20 06:23:43;;;;;;;3.90;2.08;;;;;;;;;;5014625;28;20045;-71
2022/02/20 06:26:09;;;;;;;20.50;5.28;;;;;;;;;;5010365;28;20028;-71
2022/02/20 06:28:34;;;;;;;26.13;4.40;;;;;;;;;;5013482;28;20018;-72
2022/02/20 06:30:59;;;;;;;8.75;2.65;;;;;;;;;;5011097;28;20477;-71
2022/02/20 06:33:24;;;;;;;6.63;2.03;;;;;;;;;;5023414;28;20485;-73
2022/02/20 06:35:50;;;;;;;12.13;2.60;;;;;;;;;;5019917;28;20264;-71
2022/02/20 06:38:15;;;;;;;9.73;3.85;;;;;;;;;;5012980;28;20108;-71
2022/02/20 06:40:40;;;;;;;21.27;3.63;;;;;;;;;;5012070;28;20065;-72
2022/02/20 06:43:05;;;;;;;9.13;2.03;;;;;;;;;;5026999;28;20029;-71
2022/02/20 06:45:31;;;;;;;6.97;2.15;;;;;;;;;;5011377;28;20048;-71
2022/02/20 06:47:56;;;;;;;21.30;4.25;;;;;;;;;;5012968;28;20025;-72
2022/02/20 06:50:21;;;;;;;22.73;2.60;;;;;;;;;;5028521;28;20036;-71
2022/02/20 06:52:46;;;;;;;7.35;2.35;;;;;;;;;;5019226;28;20084;-71
2022/02/20 06:55:12;;;;;;;18.92;2.75;;;;;;;;;;5012569;28;20064;-70
2022/02/20 06:57:37;;;;;;;15.85;4.30;;;;;;;;;;5010336;28;20053;-72
2022/02/20 07:00:07;;;;;;;6.18;2.10;;;;;;;;;;5010168;28;20045;-72
2022/02/20 07:02:32;;;;;;;16.67;3.00;;;;;;;;;;5010608;28;20022;-73
2022/02/20 07:04:58;;;;;;;12.38;2.60;;;;;;;;;;5005760;28;20482;-70
2022/02/20 07:07:23;;;;;;;8.23;1.90;;;;;;;;;;5007482;28;20026;-72
2022/02/20 07:09:48;;;;;;;15.23;2.80;;;;;;;;;;5008910;28;20280;-70
2022/02/20 07:12:13;;;;;;;12.07;3.28;;;;;;;;;;5010331;28;20113;-74
2022/02/20 07:14:38;;;;;;;15.80;3.20;;;;;;;;;;5025300;28;20026;-70
2022/02/20 07:17:04;;;;;;;10.47;2.03;;;;;;;;;;5009814;28;20030;-73
2022/02/20 07:19:29;;;;;;;10.70;1.73;;;;;;;;;;5010580;28;20371;-70
2022/02/20 07:21:54;;;;;;;6.40;2.13;;;;;;;;;;5010873;28;20108;-71
2022/02/20 07:24:19;;;;;;;21.07;3.27;;;;;;;;;;5010188;28;20028;-71
2022/02/20 07:26:45;;;;;;;5.45;2.33;;;;;;;;;;5010845;28;20312;-70
2022/02/20 07:29:10;;;;;;;14.50;2.22;;;;;;;;;;5026632;28;20482;-72
2022/02/20 07:31:35;;;;;;;23.77;4.13;;;;;;;;;;5027517;28;20359;-69
2022/02/20 07:34:00;;;;;;;10.67;2.47;;;;;;;;;;5011297;28;20124;-73
2022/02/20 07:36:26;;;;;;;8.65;1.33;;;;;;;;;;5010296;28;20277;-69
2022/02/20 07:38:51;;;;;;;18.92;4.03;;;;;;;;;;5029789;28;20433;-70
2022/02/20 07:41:17;;;;;;;9.60;2.25;;;;;;;;;;5012800;28;20041;-73
2022/02/20 07:43:44;;;;;;;9.23;1.38;;;;;;;;;;5040952;28;20080;-72
2022/02/20 07:46:10;;;;;;;16.35;2.58;;;;;;;;;;5016019;28;20064;-72
2022/02/20 07:48:35;;;;;;;20.70;3.20;;;;;;;;;;5010475;28;20022;-72
2022/02/20 07:51:01;;;;;;;11.98;3.08;;;;;;;;;;5026490;28;20041;-72
2022/02/20 07:53:27;;;;;;;7.20;1.50;;;;;;;;;;5010831;28;20712;-70
2022/02/20 07:55:52;;;;;;;13.07;2.53;;;;;;;;;;5010709;28;20300;-69
2022/02/20 07:58:19;;;;;;;21.38;2.53;;;;;;;;;;5025578;28;20022;-69
2022/02/20 08:00:44;;;;;;;8.35;3.45;;;;;;;;;;5006712;28;20105;-70
2022/02/20 08:03:10;;;;;;;5.22;1.75;;;;;;;;;;5011357;28;20536;-70
2022/02/20 08:05:35;;;;;;;12.05;2.20;;;;;;;;;;5009909;28;20453;-70
2022/02/20 08:08:00;;;;;;;7.93;1.65;;;;;;;;;;5020826;28;20385;-70
2022/02/20 08:10:26;;;;;;;12.93;1.65;;;;;;;;;;5012412;28;20042;-70
2022/02/20 08:12:51;;;;;;;10.60;2.38;;;;;;;;;;5012294;28;20105;-70
2022/02/20 08:15:17;;;;;;;23.67;3.28;;;;;;;;;;5009852;28;20025;-69
2022/02/20 08:17:45;;;;;;;10.52;3.28;;;;;;;;;;5021973;28;20513;-71
2022/02/20 08:20:12;;;;;;;14.90;1.60;;;;;;;;;;5012962;28;20037;-70
2022/02/20 08:22:37;;;;;;;11.40;2.63;;;;;;;;;;5011111;28;20025;-69
2022/02/20 08:25:02;;;;;;;15.87;2.40;;;;;;;;;;5013344;28;20405;-72
2022/02/20 08:27:31;;;;;;;25.90;3.53;;;;;;;;;;5013616;28;20273;-71
2022/02/20 08:29:57;;;;;;;12.35;2.15;;;;;;;;;;5013048;28;20022;-69
2022/02/20 08:32:22;;;;;;;6.68;1.67;;;;;;;;;;5011554;28;20029;-72
2022/02/20 08:34:47;;;;;;;18.93;2.30;;;;;;;;;;5011830;28;20022;-70
2022/02/20 08:37:12;;;;;;;16.67;2.50;;;;;;;;;;5029671;28;20265;-71
2022/02/20 08:39:38;;;;;;;9.02;2.30;;;;;;;;;;5024793;28;20084;-69
2022/02/20 08:42:03;;;;;;;14.65;3.15;;;;;;;;;;5035235;28;20113;-70
2022/02/20 08:44:33;;;;;;;7.60;2.97;;;;;;;;;;5039262;28;20111;-69
2022/02/20 08:46:59;;;;;;;23.05;2.58;;;;;;;;;;5014034;28;20014;-69
2022/02/20 08:49:24;;;;;;;17.10;3.38;;;;;;;;;;5013165;28;20544;-69
2022/02/20 08:51:49;;;;;;;5.83;1.50;;;;;;;;;;5010549;28;20727;-72
2022/02/20 08:54:14;;;;;;;11.55;1.92;;;;;;;;;;5008100;28;20277;-69
2022/02/20 08:56:39;;;;;;;10.07;2.00;;;;;;;;;;5011209;28;20022;-72
2022/02/20 08:59:05;;;;;;;12.63;1.80;;;;;;;;;;5010847;28;20322;-70
2022/02/20 09:01:30;;;;;;;3.13;1.05;;;;;;;;;;5011309;28;20022;-69
2022/02/20 09:04:02;;;;;;;1.77;0.77;;;;;;;;;;5011152;28;20014;-69
2022/02/20 09:06:31;;;;;;;4.88;1.05;;;;;;;;;;5025938;28;20022;-70
2022/02/20 09:08:57;;;;;;;7.78;1.17;;;;;;;;;;5010642;28;20037;-70
2022/02/20 09:11:23;;;;;;;6.53;1.10;;;;;;;;;;5010779;28;20033;-69
2022/02/20 09:13:48;;;;;;;0.30;0.30;;;;;;;;;;5010722;28;20013;-69
2022/02/20 09:16:13;;;;;;;3.10;0.65;;;;;;;;;;5010237;28;20028;-69
2022/02/20 09:18:38;;;;;;;2.25;0.75;;;;;;;;;;5010876;28;20030;-69
2022/02/20 09:21:04;;;;;;;2.47;0.60;;;;;;;;;;5022778;28;20064;-69
2022/02/20 09:23:29;;;;;;;1.77;0.63;;;;;;;;;;5010661;28;20018;-69
2022/02/20 09:25:54;;;;;;;2.75;0.30;;;;;;;;;;5010358;28;20029;-69
2022/02/20 09:28:20;;;;;;;4.80;0.93;;;;;;;;;;5010678;28;20553;-71
2022/02/20 09:30:45;;;;;;;4.50;0.63;;;;;;;;;;5017536;28;20022;-70
2022/02/20 09:33:10;;;;;;;2.50;0.70;;;;;;;;;;5008730;28;20095;-69
2022/02/20 09:35:36;;;;;;;3.42;1.40;;;;;;;;;;5010309;28;20288;-69
2022/02/20 09:38:01;;;;;;;2.30;0.77;;;;;;;;;;5009493;28;20052;-71
2022/02/20 09:40:27;;;;;;;2.27;0.30;;;;;;;;;;5010065;28;20022;-68
2022/02/20 09:42:52;;;;;;;4.65;1.60;;;;;;;;;;5010339;28;20748;-69
2022/02/20 09:45:17;;;;;;;3.10;0.80;;;;;;;;;;5010219;28;20164;-69
2022/02/20 09:47:44;;;;;;;2.47;0.85;;;;;;;;;;5013661;28;20053;-71
2022/02/20 09:50:09;;;;;;;2.55;0.50;;;;;;;;;;5010433;28;20024;-69
2022/02/20 09:52:34;;;;;;;0.45;0.43;;;;;;;;;;5005253;28;20026;-68
2022/02/20 09:54:59;;;;;;;2.15;0.63;;;;;;;;;;5004343;28;20026;-69
2022/02/20 09:57:25;;;;;;;1.40;0.50;;;;;;;;;;5015661;28;20010;-68
2022/02/20 09:59:50;;;;;;;3.20;0.88;;;;;;;;;;5009642;28;20685;-69
2022/02/20 10:02:17;;;;;;;6.88;0.93;;;;;;;;;;5009329;28;20119;-68
2022/02/20 10:04:44;;;;;;;4.97;1.05;;;;;;;;;;5009265;28;20018;-68
2022/02/20 10:07:23;;;;;;;4.50;0.93;;;;;;;;;;5011195;28;20018;-68
2022/02/20 10:09:49;;;;;;;9.13;1.30;;;;;;;;;;5027439;28;20103;-69
2022/02/20 10:12:18;;;;;;;6.00;1.13;;;;;;;;;;5026512;28;20505;-70
2022/02/20 10:14:43;;;;;;;2.03;0.43;;;;;;;;;;5011243;28;20018;-69
2022/02/20 10:17:12;;;;;;;3.90;0.77;;;;;;;;;;5008133;28;20033;-69
2022/02/20 10:19:49;;;;;;;5.03;0.90;;;;;;;;;;5010062;28;20024;-69
2022/02/20 10:22:23;;;;;;;3.88;0.70;;;;;;;;;;5006758;28;20076;-69
2022/02/20 10:25:01;;;;;;;4.97;0.95;;;;;;;;;;5006972;28;20014;-69
2022/02/20 10:27:26;;;;;;;5.00;0.98;;;;;;;;;;5008966;28;20029;-70
2022/02/20 10:30:21;;;;;;;2.50;1.03;;;;;;;;;;5010102;28;20105;-70
2022/02/20 10:33:02;;;;;;;5.45;1.35;;;;;;;;;;4996521;28;20355;-69
2022/02/20 10:35:29;;;;;;;2.03;1.02;;;;;;;;;;5006394;28;20022;-70
2022/02/20 10:37:55;;;;;;;2.85;0.73;;;;;;;;;;5007624;28;20125;-69
2022/02/20 10:40:30;;;;;;;2.88;1.13;;;;;;;;;;5007184;28;20104;-69
2022/02/20 10:42:59;;;;;;;3.30;0.47;;;;;;;;;;5017383;28;20022;-70
2022/02/20 10:45:33;;;;;;;3.70;0.90;;;;;;;;;;5019906;28;20431;-69
2022/02/20 10:47:59;;;;;;;2.20;0.40;;;;;;;;;;5012167;28;20037;-68
2022/02/20 10:50:25;;;;;;;5.70;0.60;;;;;;;;;;5013615;28;20402;-69
2022/02/20 10:53:09;;;;;;;4.80;0.85;;;;;;;;;;5028924;28;20021;-68
2022/02/20 10:55:40;;;;;;;1.48;0.60;;;;;;;;;;5023314;28;20025;-68
2022/02/20 10:58:10;;;;;;;1.17;0.45;;;;;;;;;;5026189;28;20046;-70
2022/02/20 11:00:35;;;;;;;0.35;0.30;;;;;;;;;;5011138;28;20109;-68
2022/02/20 11:03:05;;;;;;;2.65;0.50;;;;;;;;;;5026067;28;20097;-68
2022/02/20 11:05:31;;;;;;;4.70;0.63;;;;;;;;;;5009745;28;20021;-69
2022/02/20 11:07:57;;;;;;;1.23;0.20;;;;;;;;;;5016369;28;20521;-68
2022/02/20 11:10:22;;;;;;;1.45;0.70;;;;;;;;;;5019365;28;20096;-69
2022/02/20 11:12:48;;;;;;;4.57;1.25;;;;;;;;;;5015789;28;20027;-68
2022/02/20 11:15:17;;;;;;;1.70;0.45;;;;;;;;;;5015383;28;20382;-68
2022/02/20 11:17:42;;;;;;;5.10;1.50;;;;;;;;;;5012502;28;20052;-67
2022/02/20 11:20:09;;;;;;;3.05;0.60;;;;;;;;;;5009537;28;20378;-69
2022/02/20 11:22:36;;;;;;;3.88;0.50;;;;;;;;;;5009730;28;20108;-70
2022/02/20 11:25:02;;;;;;;1.33;0.70;;;;;;;;;;5010992;28;20075;-70
2022/02/20 11:27:28;;;;;;;3.03;0.57;;;;;;;;;;5022477;28;20504;-68
2022/02/20 11:29:53;;;;;;;7.97;1.23;;;;;;;;;;5010970;28;20029;-69
2022/02/20 11:32:19;;;;;;;6.57;0.63;;;;;;;;;;5010757;28;20100;-68
2022/02/20 11:34:45;;;;;;;4.90;1.00;;;;;;;;;;5007567;28;20037;-68
2022/02/20 11:37:11;;;;;;;6.55;1.05;;;;;;;;;;5009352;28;20045;-69
2022/02/20 11:39:36;;;;;;;7.30;2.50;;;;;;;;;;5010359;28;20125;-69
2022/02/20 11:42:13;;;;;;;2.78;1.00;;;;;;;;;;5010723;28;20026;-71
2022/02/20 11:44:52;;;;;;;3.75;0.70;;;;;;;;;;4995338;28;20556;-69
2022/02/20 11:47:36;;;;;;;3.30;0.60;;;;;;;;;;5035419;28;20496;-68
2022/02/20 11:50:13;;;;;;;4.22;0.82;;;;;;;;;;5015235;28;20397;-69
2022/02/20 11:52:45;;;;;;;2.30;0.63;;;;;;;;;;5022730;28;20437;-70
2022/02/20 11:55:20;;;;;;;1.17;0.68;;;;;;;;;;5025526;28;20112;-73
2022/02/20 11:57:45;;;;;;;5.70;2.00;;;;;;;;;;5009339;28;20540;-70
2022/02/20 12:00:17;;;;;;;5.70;1.58;;;;;;;;;;5016363;28;20109;-68
2022/02/20 12:03:00;;;;;;;9.80;1.75;;;;;;;;;;5011203;28;20153;-70
2022/02/20 12:05:26;;;;;;;4.45;1.88;;;;;;;;;;5023600;28;20125;-70
2022/02/20 12:07:51;;;;;;;4.80;1.33;;;;;;;;;;5022470;28;20056;-70
2022/02/20 12:10:28;;;;;;;12.48;1.42;;;;;;;;;;5013014;28;20029;-70
2022/02/20 12:12:57;;;;;;;4.47;0.88;;;;;;;;;;5012105;28;20025;-69
2022/02/20 12:15:29;;;;;;;2.90;1.63;;;;;;;;;;5016161;28;20108;-69
2022/02/20 12:18:18;;;;;;;7.68;2.28;;;;;;;;;;5036407;28;20109;-69
2022/02/20 12:20:43;;;;;;;5.25;1.75;;;;;;;;;;5018533;28;20037;-71
2022/02/20 12:23:09;;;;;;;8.02;1.15;;;;;;;;;;5010872;28;20018;-69
2022/02/20 12:25:37;;;;;;;24.98;2.60;;;;;;;;;;5014272;28;20097;-70
2022/02/20 12:28:11;;;;;;;5.82;1.23;;;;;;;;;;5010022;28;20014;-69
2022/02/20 12:30:36;;;;;;;10.60;1.85;;;;;;;;;;5011329;28;20057;-69
2022/02/20 12:33:01;;;;;;;5.43;1.58;;;;;;;;;;5010738;28;20080;-70
2022/02/20 12:35:27;;;;;;;7.18;1.40;;;;;;;;;;5025642;28;20053;-70
2022/02/20 12:37:54;;;;;;;15.23;1.77;;;;;;;;;;5026206;28;20025;-71
2022/02/20 12:40:24;;;;;;;13.88;2.13;;;;;;;;;;5010683;28;20032;-72
2022/02/20 12:42:57;;;;;;;11.95;2.28;;;;;;;;;;5010519;28;20021;-71
2022/02/20 12:45:24;;;;;;;9.00;1.42;;;;;;;;;;5001641;28;20018;-70
2022/02/20 12:47:53;;;;;;;21.25;3.08;;;;;;;;;;5026613;28;20028;-69
2022/02/20 12:50:18;;;;;;;3.47;1.30;;;;;;;;;;5010455;28;20017;-69
2022/02/20 12:52:44;;;;;;;9.88;1.52;;;;;;;;;;5010515;28;20356;-69
2022/02/20 12:55:14;;;;;;;8.27;1.58;;;;;;;;;;5010467;28;20021;-70
2022/02/20 12:57:39;;;;;;;6.13;1.67;;;;;;;;;;5008102;28;20017;-69
2022/02/20 13:00:06;;;;;;;9.70;2.25;;;;;;;;;;5010998;28;20144;-71
2022/02/20 13:02:32;;;;;;;18.75;2.97;;;;;;;;;;5010723;28;20037;-70
2022/02/20 13:05:11;;;;;;;10.82;2.33;;;;;;;;;;5008878;28;20010;-70
2022/02/20 13:07:37;;;;;;;6.68;1.58;;;;;;;;;;5025164;28;20017;-71
2022/02/20 13:10:03;;;;;;;9.43;2.03;;;;;;;;;;5010756;28;20033;-70
2022/02/20 13:12:28;;;;;;;5.82;1.00;;;;;;;;;;5008898;28;20449;-71
2022/02/20 13:14:58;;;;;;;14.30;2.20;;;;;;;;;;5009702;28;20101;-70
2022/02/20 13:17:40;;;;;;;8.13;1.60;;;;;;;;;;5009951;28;20505;-73
2022/02/20 13:20:24;;;;;;;17.42;2.58;;;;;;;;;;5010845;28;20447;-70
2022/02/20 13:22:49;;;;;;;20.55;2.90;;;;;;;;;;5008804;28;20097;-72
2022/02/20 13:25:16;;;;;;;3.08;0.90;;;;;;;;;;5009503;28;20195;-70
2022/02/20 13:27:48;;;;;;;14.65;2.47;;;;;;;;;;5025622;28;20048;-71
2022/02/20 13:30:33;;;;;;;10.57;2.33;;;;;;;;;;5010493;28;20488;-70
2022/02/20 13:33:13;;;;;;;8.52;1.42;;;;;;;;;;5010276;28;20022;-71
2022/02/20 13:35:39;;;;;;;6.65;1.50;;;;;;;;;;5007717;28;20041;-70
2022/02/20 13:38:05;;;;;;;12.80;2.83;;;;;;;;;;5009947;28;20386;-69
2022/02/20 13:40:31;;;;;;;10.35;1.80;;;;;;;;;;5006187;28;20465;-70
2022/02/20 13:42:58;;;;;;;10.60;1.15;;;;;;;;;;5009947;28;20022;-70
2022/02/20 13:45:23;;;;;;;22.20;2.13;;;;;;;;;;5024738;28;20026;-70
2022/02/20 13:47:48;;;;;;;11.77;2.58;;;;;;;;;;5009683;28;20018;-70
2022/02/20 13:50:17;;;;;;;12.73;2.67;;;;;;;;;;5009473;28;20484;-69
2022/02/20 13:52:44;;;;;;;15.93;2.38;;;;;;;;;;5007784;28;20025;-70
2022/02/20 13:55:19;;;;;;;9.02;1.85;;;;;;;;;;5009485;28;20018;-72
2022/02/20 13:57:44;;;;;;;11.07;1.70;;;;;;;;;;5024211;28;20030;-70
2022/02/20 14:00:11;;;;;;;9.23;1.60;;;;;;;;;;5010384;28;20036;-71
2022/02/20 14:02:36;;;;;;;17.10;3.20;;;;;;;;;;5009306;28;20284;-71
2022/02/20 14:05:06;;;;;;;17.85;3.72;;;;;;;;;;5024861;28;20032;-71
2022/02/20 14:07:31;;;;;;;6.63;1.75;;;;;;;;;;5024472;28;20446;-71
2022/02/20 14:09:57;;;;;;;9.00;2.03;;;;;;;;;;5010262;28;20052;-71
2022/02/20 14:12:28;;;;;;;17.88;2.72;;;;;;;;;;5009913;28;20363;-70
2022/02/20 14:15:06;;;;;;;4.95;1.23;;;;;;;;;;5010056;28;20375;-70
2022/02/20 14:17:46;;;;;;;7.72;2.13;;;;;;;;;;5009714;28;20495;-71
2022/02/20 14:20:12;;;;;;;10.52;2.58;;;;;;;;;;5012731;28;20033;-71
2022/02/20 14:22:37;;;;;;;10.63;1.70;;;;;;;;;;5011721;28;20425;-71
2022/02/20 14:25:05;;;;;;;11.65;2.50;;;;;;;;;;5012617;28;20030;-71
2022/02/20 14:27:33;;;;;;;13.10;2.33;;;;;;;;;;5011515;28;20420;-71
2022/02/20 14:29:58;;;;;;;5.43;1.88;;;;;;;;;;5013342;28;20022;-70
2022/02/20 14:32:26;;;;;;;12.38;2.13;;;;;;;;;;5010515;28;20022;-70